IBE208 KMIA-LEBB
Flight info
| Callsign | IBE208 |
|---|---|
| Flight time | N/A |
| Altitude | 31000 |
| Route | FOLZZ3 ALYRA DCT ROWSY Y494 WHOOS/M083F310 Y494 VIRST M201 DRYED DCT JEBBY DCT RAFIN/M083F330 DCT 45N050W 47N040W 49N030W 50N020W DCT SOMAX DCT ATSUR DCT TULTA/N0481F330 DCT TURDO DCT DELOG N75 DOSUL DOSUL3T |
| Aircraft | B343/H-VGDW/C |
Departure
| Time | N/A |
|---|---|
| Airport | Miami International Airport (KMIA) |
Arrival
| Time | 2026-05-01 13:32 |
|---|---|
| Airport | Bilbao Airport (LEBB) |
| Time | Latitude | Longitude | Altitude | Speed | Heading |
|---|---|---|---|---|---|
| 2026-05-01 11:52 | 50.02408 | -16.67909 | 35143 ft | 448 kts | 87° |
| 2026-05-01 11:52 | 50.02335 | -16.58112 | 35138 ft | 458 kts | 88° |
| 2026-05-01 11:53 | 50.02251 | -16.48092 | 35141 ft | 468 kts | 88° |
| 2026-05-01 11:53 | 50.02157 | -16.37926 | 35128 ft | 478 kts | 88° |
| 2026-05-01 11:54 | 50.02052 | -16.27494 | 35137 ft | 487 kts | 89° |
| 2026-05-01 11:54 | 50.01935 | -16.16865 | 35124 ft | 496 kts | 89° |
| 2026-05-01 11:55 | 50.01806 | -16.06133 | 35126 ft | 496 kts | 89° |
| 2026-05-01 11:55 | 50.01668 | -15.95495 | 35119 ft | 495 kts | 89° |
| 2026-05-01 11:56 | 50.01520 | -15.84794 | 35121 ft | 495 kts | 89° |
| 2026-05-01 11:56 | 50.01363 | -15.74096 | 35120 ft | 495 kts | 89° |
| 2026-05-01 11:57 | 50.01197 | -15.63399 | 35111 ft | 495 kts | 90° |
| 2026-05-01 11:57 | 50.01021 | -15.52742 | 35101 ft | 497 kts | 90° |
| 2026-05-01 11:58 | 50.00834 | -15.41993 | 35095 ft | 497 kts | 90° |
| 2026-05-01 11:59 | 50.00534 | -15.25870 | 35092 ft | 498 kts | 90° |
| 2026-05-01 11:59 | 50.00324 | -15.15190 | 35102 ft | 499 kts | 91° |
| 2026-05-01 12:00 | 49.99986 | -14.98977 | 35092 ft | 501 kts | 91° |
| 2026-05-01 12:01 | 49.99988 | -14.82731 | 35093 ft | 501 kts | 89° |
| 2026-05-01 12:01 | 50.00072 | -14.71894 | 35093 ft | 501 kts | 89° |
| 2026-05-01 12:02 | 50.00112 | -14.61125 | 35097 ft | 502 kts | 90° |
| 2026-05-01 12:02 | 50.00119 | -14.50258 | 35081 ft | 503 kts | 90° |
| 2026-05-01 12:03 | 50.00112 | -14.39393 | 35081 ft | 503 kts | 90° |
| 2026-05-01 12:03 | 50.00095 | -14.28525 | 35086 ft | 503 kts | 90° |
| 2026-05-01 12:04 | 50.00070 | -14.17737 | 35089 ft | 503 kts | 91° |
| 2026-05-01 12:04 | 50.00035 | -14.06863 | 35081 ft | 503 kts | 91° |
| 2026-05-01 12:05 | 49.99125 | -13.96147 | 35091 ft | 501 kts | 106° |
| 2026-05-01 12:05 | 49.96095 | -13.80694 | 35094 ft | 501 kts | 109° |
| 2026-05-01 12:06 | 49.93921 | -13.70420 | 35088 ft | 501 kts | 109° |
| 2026-05-01 12:06 | 49.91751 | -13.60143 | 35093 ft | 501 kts | 109° |
| 2026-05-01 12:07 | 49.89592 | -13.49871 | 35087 ft | 501 kts | 109° |
| 2026-05-01 12:07 | 49.87428 | -13.39602 | 35081 ft | 501 kts | 109° |
| 2026-05-01 12:08 | 49.85270 | -13.29408 | 35083 ft | 501 kts | 110° |
| 2026-05-01 12:08 | 49.83086 | -13.19145 | 35091 ft | 502 kts | 110° |
| 2026-05-01 12:09 | 49.80892 | -13.08891 | 35094 ft | 502 kts | 110° |
| 2026-05-01 12:09 | 49.78688 | -12.98644 | 35089 ft | 502 kts | 111° |
| 2026-05-01 12:10 | 49.75383 | -12.83374 | 35096 ft | 501 kts | 111° |
| 2026-05-01 12:11 | 49.72042 | -12.68051 | 35082 ft | 501 kts | 112° |
| 2026-05-01 12:11 | 49.69806 | -12.57857 | 35094 ft | 501 kts | 112° |
| 2026-05-01 12:12 | 49.67561 | -12.47675 | 35095 ft | 501 kts | 112° |
| 2026-05-01 12:12 | 49.65324 | -12.37578 | 35096 ft | 501 kts | 112° |
| 2026-05-01 12:13 | 49.63062 | -12.27415 | 35096 ft | 501 kts | 112° |
| 2026-05-01 12:13 | 49.60794 | -12.17275 | 35093 ft | 499 kts | 113° |
| 2026-05-01 12:14 | 49.58525 | -12.07175 | 35100 ft | 498 kts | 113° |
| 2026-05-01 12:14 | 49.56253 | -11.97117 | 35091 ft | 497 kts | 113° |
| 2026-05-01 12:15 | 49.53991 | -11.87150 | 35100 ft | 496 kts | 113° |
| 2026-05-01 12:15 | 49.51707 | -11.77138 | 35100 ft | 496 kts | 114° |
| 2026-05-01 12:16 | 49.49417 | -11.67140 | 35104 ft | 495 kts | 114° |
| 2026-05-01 12:16 | 49.47126 | -11.57183 | 35102 ft | 493 kts | 114° |
| 2026-05-01 12:17 | 49.44843 | -11.47314 | 35107 ft | 493 kts | 114° |
| 2026-05-01 12:17 | 49.42538 | -11.37392 | 35092 ft | 493 kts | 114° |
| 2026-05-01 12:18 | 49.40224 | -11.27478 | 35104 ft | 493 kts | 114° |
| 2026-05-01 12:18 | 49.37905 | -11.17585 | 35096 ft | 493 kts | 114° |
| 2026-05-01 12:19 | 49.35594 | -11.07774 | 35107 ft | 492 kts | 114° |
| 2026-05-01 12:19 | 49.33263 | -10.97921 | 35107 ft | 491 kts | 114° |
| 2026-05-01 12:20 | 49.30923 | -10.88075 | 35111 ft | 492 kts | 114° |
| 2026-05-01 12:20 | 49.28575 | -10.78240 | 35110 ft | 492 kts | 114° |
| 2026-05-01 12:21 | 49.26219 | -10.68416 | 35105 ft | 491 kts | 114° |
| 2026-05-01 12:21 | 49.23872 | -10.58672 | 35116 ft | 491 kts | 114° |
| 2026-05-01 12:22 | 49.21501 | -10.48876 | 35124 ft | 491 kts | 114° |
| 2026-05-01 12:22 | 49.19121 | -10.39081 | 35124 ft | 491 kts | 114° |
| 2026-05-01 12:23 | 49.16734 | -10.29303 | 35124 ft | 491 kts | 114° |
| 2026-05-01 12:23 | 49.14354 | -10.19598 | 35117 ft | 491 kts | 114° |
| 2026-05-01 12:24 | 49.11958 | -10.09864 | 35132 ft | 489 kts | 114° |
| 2026-05-01 12:24 | 49.09558 | -10.00161 | 35132 ft | 488 kts | 114° |
| 2026-05-01 12:25 | 49.05943 | -9.85628 | 35134 ft | 488 kts | 114° |
| 2026-05-01 12:26 | 49.03540 | -9.76018 | 35135 ft | 488 kts | 115° |
| 2026-05-01 12:26 | 48.99900 | -9.61539 | 35143 ft | 487 kts | 115° |
| 2026-05-01 12:27 | 48.96254 | -9.47126 | 35148 ft | 486 kts | 115° |
| 2026-05-01 12:28 | 48.92605 | -9.32799 | 35139 ft | 486 kts | 115° |
| 2026-05-01 12:29 | 48.88921 | -9.18422 | 35153 ft | 487 kts | 115° |
| 2026-05-01 12:29 | 48.85214 | -9.04046 | 35156 ft | 487 kts | 115° |
| 2026-05-01 12:30 | 48.81509 | -8.89765 | 35161 ft | 487 kts | 116° |
| 2026-05-01 12:31 | 48.79019 | -8.80219 | 35163 ft | 487 kts | 116° |
| 2026-05-01 12:31 | 48.76520 | -8.70675 | 35156 ft | 487 kts | 116° |
| 2026-05-01 12:32 | 48.74015 | -8.61151 | 35164 ft | 487 kts | 116° |
| 2026-05-01 12:32 | 48.70252 | -8.46919 | 35168 ft | 488 kts | 116° |
| 2026-05-01 12:33 | 48.67722 | -8.37395 | 35167 ft | 488 kts | 117° |
| 2026-05-01 12:33 | 48.65184 | -8.27882 | 35174 ft | 488 kts | 117° |
| 2026-05-01 12:34 | 48.62656 | -8.18444 | 35173 ft | 487 kts | 117° |
| 2026-05-01 12:34 | 48.60089 | -8.08982 | 35174 ft | 485 kts | 120° |
| 2026-05-01 12:35 | 48.56547 | -8.00500 | 35176 ft | 472 kts | 136° |
| 2026-05-01 12:35 | 48.51604 | -7.94226 | 35181 ft | 462 kts | 150° |
| 2026-05-01 12:36 | 48.46217 | -7.89092 | 35181 ft | 461 kts | 153° |
| 2026-05-01 12:36 | 48.40732 | -7.84090 | 35181 ft | 461 kts | 153° |
| 2026-05-01 12:37 | 48.35256 | -7.79068 | 35183 ft | 461 kts | 153° |
| 2026-05-01 12:37 | 48.29790 | -7.74016 | 35186 ft | 461 kts | 153° |
| 2026-05-01 12:38 | 48.24367 | -7.68997 | 35187 ft | 461 kts | 153° |
| 2026-05-01 12:38 | 48.18914 | -7.63962 | 35189 ft | 460 kts | 153° |
| 2026-05-01 12:39 | 48.13457 | -7.58939 | 35189 ft | 460 kts | 153° |
| 2026-05-01 12:39 | 48.07993 | -7.53925 | 35189 ft | 461 kts | 153° |
| 2026-05-01 12:40 | 48.02530 | -7.48924 | 35192 ft | 461 kts | 153° |
| 2026-05-01 12:40 | 47.97101 | -7.43966 | 35190 ft | 461 kts | 153° |
| 2026-05-01 12:41 | 47.91628 | -7.38981 | 35194 ft | 461 kts | 153° |
| 2026-05-01 12:41 | 47.86149 | -7.34003 | 35194 ft | 461 kts | 153° |
| 2026-05-01 12:42 | 47.80669 | -7.29036 | 35192 ft | 461 kts | 153° |
| 2026-05-01 12:42 | 47.75227 | -7.24115 | 35204 ft | 461 kts | 153° |
| 2026-05-01 12:43 | 47.69746 | -7.19172 | 35202 ft | 461 kts | 154° |
| 2026-05-01 12:43 | 47.64260 | -7.14236 | 35203 ft | 461 kts | 154° |
| 2026-05-01 12:44 | 47.58770 | -7.09310 | 35199 ft | 462 kts | 154° |
| 2026-05-01 12:45 | 47.47808 | -6.99510 | 35200 ft | 462 kts | 154° |
| 2026-05-01 12:45 | 47.42329 | -6.94551 | 35201 ft | 463 kts | 152° |
| 2026-05-01 12:46 | 47.37018 | -6.89119 | 35195 ft | 465 kts | 150° |
| 2026-05-01 12:46 | 47.31748 | -6.83581 | 35203 ft | 465 kts | 150° |
| 2026-05-01 12:47 | 47.26488 | -6.78155 | 35206 ft | 465 kts | 150° |
| 2026-05-01 12:47 | 47.21172 | -6.72750 | 35207 ft | 464 kts | 151° |
| 2026-05-01 12:48 | 47.15849 | -6.67370 | 35207 ft | 465 kts | 151° |
| 2026-05-01 12:48 | 47.11419 | -6.62904 | 35208 ft | 465 kts | 151° |
| 2026-05-01 12:49 | 47.05222 | -6.56664 | 35200 ft | 465 kts | 151° |
| 2026-05-01 12:49 | 46.99877 | -6.51298 | 35211 ft | 466 kts | 151° |
| 2026-05-01 12:50 | 46.95426 | -6.46838 | 35212 ft | 467 kts | 151° |
| 2026-05-01 12:50 | 46.90068 | -6.41480 | 35211 ft | 466 kts | 151° |
| 2026-05-01 12:51 | 46.83835 | -6.35264 | 35211 ft | 466 kts | 151° |
| 2026-05-01 12:52 | 46.76697 | -6.28168 | 35208 ft | 467 kts | 151° |
| 2026-05-01 12:52 | 46.68646 | -6.20192 | 35212 ft | 466 kts | 151° |
| 2026-05-01 12:53 | 46.60592 | -6.12243 | 35212 ft | 466 kts | 151° |
| 2026-05-01 12:54 | 46.55257 | -6.06993 | 35211 ft | 466 kts | 151° |
| 2026-05-01 12:54 | 46.47179 | -5.99070 | 35209 ft | 468 kts | 151° |
| 2026-05-01 12:55 | 46.39072 | -5.91145 | 35214 ft | 469 kts | 151° |
| 2026-05-01 12:56 | 46.33659 | -5.85870 | 35212 ft | 469 kts | 151° |
| 2026-05-01 12:56 | 46.28280 | -5.80640 | 35211 ft | 469 kts | 151° |
| 2026-05-01 12:57 | 46.22861 | -5.75384 | 35213 ft | 469 kts | 151° |
| 2026-05-01 12:57 | 46.14732 | -5.67525 | 35210 ft | 469 kts | 151° |
| 2026-05-01 12:58 | 46.09307 | -5.62295 | 35210 ft | 469 kts | 151° |
| 2026-05-01 12:59 | 46.01207 | -5.54510 | 35187 ft | 469 kts | 151° |
| 2026-05-01 12:59 | 45.98489 | -5.51905 | 34936 ft | 470 kts | 151° |
| 2026-05-01 12:59 | 45.93040 | -5.46691 | 33761 ft | 471 kts | 151° |
| 2026-05-01 13:00 | 45.87598 | -5.41499 | 32103 ft | 476 kts | 150° |
| 2026-05-01 13:00 | 45.84830 | -5.38864 | 31245 ft | 479 kts | 150° |
| 2026-05-01 13:01 | 45.79254 | -5.33562 | 30274 ft | 485 kts | 150° |
| 2026-05-01 13:01 | 45.76428 | -5.30879 | 30208 ft | 489 kts | 150° |
| 2026-05-01 13:02 | 45.67920 | -5.22813 | 30206 ft | 489 kts | 150° |
| 2026-05-01 13:07 | 45.05150 | -4.64261 | 30187 ft | 493 kts | 150° |
| 2026-05-01 13:08 | 44.99391 | -4.58968 | 30186 ft | 494 kts | 150° |
| 2026-05-01 13:08 | 44.93621 | -4.53677 | 30181 ft | 495 kts | 149° |
| 2026-05-01 13:09 | 44.87880 | -4.48426 | 30180 ft | 496 kts | 149° |
| 2026-05-01 13:09 | 44.82087 | -4.43139 | 30181 ft | 496 kts | 149° |
| 2026-05-01 13:10 | 44.76292 | -4.37863 | 30181 ft | 496 kts | 149° |
| 2026-05-01 13:10 | 44.70496 | -4.32600 | 30181 ft | 496 kts | 149° |
| 2026-05-01 13:11 | 44.64734 | -4.27381 | 30173 ft | 496 kts | 149° |
| 2026-05-01 13:11 | 44.58931 | -4.22136 | 30170 ft | 496 kts | 149° |
| 2026-05-01 13:12 | 44.53125 | -4.16902 | 30159 ft | 496 kts | 149° |
| 2026-05-01 13:12 | 44.47323 | -4.11683 | 30069 ft | 492 kts | 149° |
| 2026-05-01 13:12 | 44.44459 | -4.09109 | 29291 ft | 489 kts | 149° |
| 2026-05-01 13:13 | 44.41610 | -4.06553 | 28226 ft | 481 kts | 149° |
| 2026-05-01 13:13 | 44.38827 | -4.04058 | 26914 ft | 470 kts | 149° |
| 2026-05-01 13:13 | 44.36137 | -4.01649 | 25674 ft | 461 kts | 149° |
| 2026-05-01 13:13 | 44.33470 | -3.99264 | 24481 ft | 451 kts | 149° |
| 2026-05-01 13:14 | 44.30872 | -3.96889 | 23221 ft | 442 kts | 147° |
| 2026-05-01 13:14 | 44.28395 | -3.94369 | 22337 ft | 439 kts | 145° |
| 2026-05-01 13:14 | 44.25998 | -3.91794 | 21902 ft | 432 kts | 144° |
| 2026-05-01 13:14 | 44.23625 | -3.89218 | 21380 ft | 433 kts | 144° |
| 2026-05-01 13:15 | 44.21254 | -3.86659 | 20824 ft | 429 kts | 144° |
| 2026-05-01 13:15 | 44.18893 | -3.84141 | 20226 ft | 427 kts | 145° |
| 2026-05-01 13:15 | 44.16565 | -3.81686 | 19648 ft | 424 kts | 145° |
| 2026-05-01 13:15 | 44.14216 | -3.79228 | 19077 ft | 422 kts | 145° |
| 2026-05-01 13:16 | 44.11869 | -3.76785 | 18554 ft | 420 kts | 146° |
| 2026-05-01 13:16 | 44.09538 | -3.74365 | 17933 ft | 417 kts | 146° |
| 2026-05-01 13:16 | 44.07226 | -3.71969 | 17369 ft | 413 kts | 146° |
| 2026-05-01 13:17 | 44.00410 | -3.64912 | 15740 ft | 402 kts | 145° |
| 2026-05-01 13:17 | 43.98207 | -3.62634 | 15230 ft | 398 kts | 145° |
| 2026-05-01 13:18 | 43.93800 | -3.58084 | 14235 ft | 392 kts | 145° |
| 2026-05-01 13:18 | 43.91620 | -3.55836 | 13718 ft | 389 kts | 145° |
| 2026-05-01 13:18 | 43.89458 | -3.53608 | 13167 ft | 385 kts | 146° |
| 2026-05-01 13:18 | 43.87323 | -3.51411 | 12641 ft | 380 kts | 146° |
| 2026-05-01 13:19 | 43.85208 | -3.49236 | 12095 ft | 377 kts | 146° |
| 2026-05-01 13:19 | 43.83111 | -3.47082 | 11545 ft | 374 kts | 146° |
| 2026-05-01 13:19 | 43.79015 | -3.42873 | 10943 ft | 366 kts | 146° |
| 2026-05-01 13:20 | 43.76998 | -3.40809 | 10876 ft | 352 kts | 146° |
| 2026-05-01 13:20 | 43.75073 | -3.38839 | 10851 ft | 336 kts | 146° |
| 2026-05-01 13:20 | 43.73241 | -3.36965 | 10711 ft | 319 kts | 146° |
| 2026-05-01 13:21 | 43.69922 | -3.33564 | 10346 ft | 276 kts | 146° |
| 2026-05-01 13:21 | 43.68424 | -3.32028 | 10221 ft | 269 kts | 146° |
| 2026-05-01 13:21 | 43.66924 | -3.30479 | 9881 ft | 271 kts | 145° |
| 2026-05-01 13:21 | 43.65426 | -3.28858 | 9372 ft | 277 kts | 144° |
| 2026-05-01 13:22 | 43.63881 | -3.27201 | 8786 ft | 284 kts | 145° |
| 2026-05-01 13:22 | 43.62324 | -3.25554 | 8390 ft | 278 kts | 145° |
| 2026-05-01 13:22 | 43.60812 | -3.23971 | 8093 ft | 268 kts | 145° |
| 2026-05-01 13:22 | 43.59347 | -3.22452 | 7768 ft | 260 kts | 146° |
| 2026-05-01 13:23 | 43.57912 | -3.20982 | 7404 ft | 254 kts | 146° |
| 2026-05-01 13:23 | 43.56503 | -3.19556 | 7087 ft | 248 kts | 146° |
| 2026-05-01 13:23 | 43.55144 | -3.18200 | 6787 ft | 242 kts | 146° |
| 2026-05-01 13:23 | 43.53799 | -3.16867 | 6511 ft | 235 kts | 146° |
| 2026-05-01 13:24 | 43.52443 | -3.15743 | 6316 ft | 219 kts | 163° |
| 2026-05-01 13:24 | 43.50979 | -3.15623 | 6052 ft | 209 kts | 191° |
| 2026-05-01 13:24 | 43.49587 | -3.16215 | 5585 ft | 211 kts | 202° |
| 2026-05-01 13:25 | 43.47168 | -3.18488 | 4555 ft | 215 kts | 225° |
| 2026-05-01 13:25 | 43.46132 | -3.19973 | 3978 ft | 214 kts | 213° |
| 2026-05-01 13:25 | 43.44798 | -3.20767 | 3498 ft | 206 kts | 185° |
| 2026-05-01 13:25 | 43.43486 | -3.20578 | 3511 ft | 181 kts | 161° |
| 2026-05-01 13:26 | 43.42379 | -3.19941 | 3487 ft | 164 kts | 156° |
| 2026-05-01 13:26 | 43.41336 | -3.19350 | 3429 ft | 161 kts | 157° |
| 2026-05-01 13:26 | 43.40357 | -3.18662 | 3446 ft | 154 kts | 140° |
| 2026-05-01 13:26 | 43.39770 | -3.17454 | 3485 ft | 154 kts | 120° |
| 2026-05-01 13:27 | 43.39290 | -3.16133 | 3481 ft | 154 kts | 117° |
| 2026-05-01 13:27 | 43.38831 | -3.14800 | 3439 ft | 153 kts | 118° |
| 2026-05-01 13:27 | 43.37909 | -3.12181 | 3403 ft | 155 kts | 118° |
| 2026-05-01 13:28 | 43.36869 | -3.09587 | 2886 ft | 156 kts | 121° |
| 2026-05-01 13:28 | 43.36370 | -3.08255 | 2649 ft | 155 kts | 117° |
| 2026-05-01 13:29 | 43.35402 | -3.05588 | 2233 ft | 158 kts | 117° |
| 2026-05-01 13:29 | 43.34444 | -3.02934 | 1814 ft | 152 kts | 116° |
| 2026-05-01 13:30 | 43.32563 | -2.97812 | 1006 ft | 149 kts | 112° |
| 2026-05-01 13:31 | 43.31644 | -2.95262 | 632 ft | 150 kts | 116° |
| 2026-05-01 13:31 | 43.30252 | -2.91450 | 125 ft | 119 kts | 116° |
| 2026-05-01 13:32 | 43.29927 | -2.90487 | 131 ft | 17 kts | 95° |
| 2026-05-01 13:33 | 43.29972 | -2.90226 | 128 ft | 5 kts | 354° |
| 2026-05-01 13:33 | 43.30029 | -2.90332 | 127 ft | 10 kts | 303° |
| 2026-05-01 13:34 | 43.30080 | -2.90471 | 126 ft | 0 kts | 297° |
| 2026-05-01 13:34 | 43.30096 | -2.90468 | 122 ft | 1 kts | 39° |
| 2026-05-01 13:35 | 43.30153 | -2.90477 | 125 ft | 3 kts | 327° |
| 2026-05-01 13:35 | 43.30153 | -2.90478 | 125 ft | 0 kts | 327° |
| 2026-05-01 13:35 | 43.30215 | -2.90517 | 128 ft | 8 kts | 352° |
| 2026-05-01 13:36 | 43.30273 | -2.90541 | 122 ft | 9 kts | 325° |
| 2026-05-01 13:36 | 43.30325 | -2.90555 | 126 ft | 8 kts | 18° |
| 2026-05-01 13:36 | 43.30381 | -2.90515 | 125 ft | 0 kts | 27° |